sensor_id;sensor_type;location;lat;lon;timestamp;temperature;humidity
23120;DHT22;11729;50.836;4.330;2023-03-23T00:01:01;14.50;99.90
23120;DHT22;11729;50.836;4.330;2023-03-23T00:03:27;14.40;99.90
23120;DHT22;11729;50.836;4.330;2023-03-23T00:05:55;14.50;99.90
23120;DHT22;11729;50.836;4.330;2023-03-23T00:08:26;14.50;99.90
23120;DHT22;11729;50.836;4.330;2023-03-23T00:10:52;14.40;99.90
23120;DHT22;11729;50.836;4.330;2023-03-23T00:13:22;14.30;99.90
23120;DHT22;11729;50.836;4.330;2023-03-23T00:15:49;14.30;99.90
23120;DHT22;11729;50.836;4.330;2023-03-23T00:18:15;14.30;99.90
23120;DHT22;11729;50.836;4.330;2023-03-23T00:20:52;14.30;99.90
23120;DHT22;11729;50.836;4.330;2023-03-23T00:23:20;14.30;99.90
23120;DHT22;11729;50.836;4.330;2023-03-23T00:25:51;14.40;99.90
23120;DHT22;11729;50.836;4.330;2023-03-23T00:28:26;14.40;99.90
23120;DHT22;11729;50.836;4.330;2023-03-23T00:31:00;14.50;99.90
23120;DHT22;11729;50.836;4.330;2023-03-23T00:33:28;14.40;99.90
23120;DHT22;11729;50.836;4.330;2023-03-23T00:35:54;14.50;99.90
23120;DHT22;11729;50.836;4.330;2023-03-23T00:38:24;14.40;99.90
23120;DHT22;11729;50.836;4.330;2023-03-23T00:40:50;14.30;99.90
23120;DHT22;11729;50.836;4.330;2023-03-23T00:43:20;14.30;99.90
23120;DHT22;11729;50.836;4.330;2023-03-23T00:45:49;14.30;99.90
23120;DHT22;11729;50.836;4.330;2023-03-23T00:48:24;14.30;99.90
23120;DHT22;11729;50.836;4.330;2023-03-23T00:50:51;14.30;99.90
23120;DHT22;11729;50.836;4.330;2023-03-23T00:53:17;14.40;99.90
23120;DHT22;11729;50.836;4.330;2023-03-23T00:55:45;14.30;99.90
23120;DHT22;11729;50.836;4.330;2023-03-23T00:58:12;14.30;99.90
23120;DHT22;11729;50.836;4.330;2023-03-23T01:00:38;14.40;99.90
23120;DHT22;11729;50.836;4.330;2023-03-23T01:03:05;14.30;99.90
23120;DHT22;11729;50.836;4.330;2023-03-23T01:05:36;14.20;99.90
23120;DHT22;11729;50.836;4.330;2023-03-23T01:08:03;14.20;99.90
23120;DHT22;11729;50.836;4.330;2023-03-23T01:10:29;14.30;99.90
23120;DHT22;11729;50.836;4.330;2023-03-23T01:12:58;14.30;99.90
23120;DHT22;11729;50.836;4.330;2023-03-23T01:15:25;14.30;99.90
23120;DHT22;11729;50.836;4.330;2023-03-23T01:17:51;14.40;99.90
23120;DHT22;11729;50.836;4.330;2023-03-23T01:20:17;14.30;99.90
23120;DHT22;11729;50.836;4.330;2023-03-23T01:22:43;14.20;99.90
23120;DHT22;11729;50.836;4.330;2023-03-23T01:25:10;14.30;99.90
23120;DHT22;11729;50.836;4.330;2023-03-23T01:27:37;14.30;99.90
23120;DHT22;11729;50.836;4.330;2023-03-23T01:30:05;14.30;99.90
23120;DHT22;11729;50.836;4.330;2023-03-23T01:32:31;14.40;99.90
23120;DHT22;11729;50.836;4.330;2023-03-23T01:34:57;14.40;99.90
23120;DHT22;11729;50.836;4.330;2023-03-23T01:37:22;14.30;99.90
23120;DHT22;11729;50.836;4.330;2023-03-23T01:39:53;14.30;99.90
23120;DHT22;11729;50.836;4.330;2023-03-23T01:42:31;14.30;99.90
23120;DHT22;11729;50.836;4.330;2023-03-23T01:47:52;14.10;99.90
23120;DHT22;11729;50.836;4.330;2023-03-23T01:50:21;14.20;99.90
23120;DHT22;11729;50.836;4.330;2023-03-23T01:52:49;14.20;99.90
23120;DHT22;11729;50.836;4.330;2023-03-23T01:55:15;14.30;99.90
23120;DHT22;11729;50.836;4.330;2023-03-23T01:57:41;14.30;99.90
23120;DHT22;11729;50.836;4.330;2023-03-23T02:00:08;14.30;99.90
23120;DHT22;11729;50.836;4.330;2023-03-23T02:02:41;14.20;99.90
23120;DHT22;11729;50.836;4.330;2023-03-23T02:05:14;14.20;99.90
23120;DHT22;11729;50.836;4.330;2023-03-23T02:07:43;14.30;99.90
23120;DHT22;11729;50.836;4.330;2023-03-23T02:10:09;14.30;99.90
23120;DHT22;11729;50.836;4.330;2023-03-23T02:12:35;14.30;99.90
23120;DHT22;11729;50.836;4.330;2023-03-23T02:15:02;14.20;99.90
23120;DHT22;11729;50.836;4.330;2023-03-23T02:17:51;14.20;99.90
23120;DHT22;11729;50.836;4.330;2023-03-23T02:23:28;14.20;99.90
23120;DHT22;11729;50.836;4.330;2023-03-23T02:36:30;14.30;99.90
23120;DHT22;11729;50.836;4.330;2023-03-23T02:39:25;14.40;99.90
23120;DHT22;11729;50.836;4.330;2023-03-23T02:42:07;14.20;99.90
23120;DHT22;11729;50.836;4.330;2023-03-23T02:44:38;14.30;99.90
23120;DHT22;11729;50.836;4.330;2023-03-23T02:47:09;14.30;99.90
23120;DHT22;11729;50.836;4.330;2023-03-23T02:49:37;14.40;99.90
23120;DHT22;11729;50.836;4.330;2023-03-23T02:52:11;14.40;99.90
23120;DHT22;11729;50.836;4.330;2023-03-23T02:54:43;14.30;99.90
23120;DHT22;11729;50.836;4.330;2023-03-23T02:57:10;14.30;99.90
23120;DHT22;11729;50.836;4.330;2023-03-23T02:59:36;14.30;99.90
23120;DHT22;11729;50.836;4.330;2023-03-23T03:02:17;14.20;99.90
23120;DHT22;11729;50.836;4.330;2023-03-23T03:10:07;14.10;99.90
23120;DHT22;11729;50.836;4.330;2023-03-23T03:15:37;14.20;99.90
23120;DHT22;11729;50.836;4.330;2023-03-23T03:20:33;14.20;99.90
23120;DHT22;11729;50.836;4.330;2023-03-23T03:23:04;14.20;99.90
23120;DHT22;11729;50.836;4.330;2023-03-23T03:25:33;14.20;99.90
23120;DHT22;11729;50.836;4.330;2023-03-23T03:28:00;14.20;99.90
23120;DHT22;11729;50.836;4.330;2023-03-23T03:30:30;14.20;99.90
23120;DHT22;11729;50.836;4.330;2023-03-23T03:32:58;14.10;99.90
23120;DHT22;11729;50.836;4.330;2023-03-23T03:35:26;14.20;99.90
23120;DHT22;11729;50.836;4.330;2023-03-23T03:37:52;14.30;99.90
23120;DHT22;11729;50.836;4.330;2023-03-23T03:40:21;14.30;99.90
23120;DHT22;11729;50.836;4.330;2023-03-23T03:42:47;14.30;99.90
23120;DHT22;11729;50.836;4.330;2023-03-23T03:45:15;14.30;99.90
23120;DHT22;11729;50.836;4.330;2023-03-23T03:47:42;14.30;99.90
23120;DHT22;11729;50.836;4.330;2023-03-23T03:50:08;14.30;99.90
23120;DHT22;11729;50.836;4.330;2023-03-23T03:52:34;14.30;99.90
23120;DHT22;11729;50.836;4.330;2023-03-23T03:55:00;14.10;99.90
23120;DHT22;11729;50.836;4.330;2023-03-23T03:57:26;14.10;99.90
23120;DHT22;11729;50.836;4.330;2023-03-23T03:59:51;14.10;99.90
23120;DHT22;11729;50.836;4.330;2023-03-23T04:02:18;14.10;99.90
23120;DHT22;11729;50.836;4.330;2023-03-23T04:04:49;14.20;99.90
23120;DHT22;11729;50.836;4.330;2023-03-23T04:07:16;14.20;99.90
23120;DHT22;11729;50.836;4.330;2023-03-23T04:09:45;14.20;99.90
23120;DHT22;11729;50.836;4.330;2023-03-23T04:12:15;14.20;99.90
23120;DHT22;11729;50.836;4.330;2023-03-23T04:14:41;14.20;99.90
23120;DHT22;11729;50.836;4.330;2023-03-23T04:17:07;14.10;99.90
23120;DHT22;11729;50.836;4.330;2023-03-23T04:19:35;14.10;99.90
23120;DHT22;11729;50.836;4.330;2023-03-23T04:22:03;14.10;99.90
23120;DHT22;11729;50.836;4.330;2023-03-23T04:24:29;14.20;99.90
23120;DHT22;11729;50.836;4.330;2023-03-23T04:26:57;14.00;99.90
23120;DHT22;11729;50.836;4.330;2023-03-23T04:29:23;14.00;99.90
23120;DHT22;11729;50.836;4.330;2023-03-23T04:31:49;13.90;99.90
23120;DHT22;11729;50.836;4.330;2023-03-23T04:34:16;14.00;99.90
23120;DHT22;11729;50.836;4.330;2023-03-23T04:36:42;14.00;99.90
23120;DHT22;11729;50.836;4.330;2023-03-23T04:39:08;14.00;99.90
23120;DHT22;11729;50.836;4.330;2023-03-23T04:41:39;14.00;99.90
23120;DHT22;11729;50.836;4.330;2023-03-23T04:44:06;14.00;99.90
23120;DHT22;11729;50.836;4.330;2023-03-23T04:46:32;14.00;99.90
23120;DHT22;11729;50.836;4.330;2023-03-23T04:49:01;14.00;99.90
23120;DHT22;11729;50.836;4.330;2023-03-23T04:51:28;14.00;99.90
23120;DHT22;11729;50.836;4.330;2023-03-23T04:53:54;14.00;99.90
23120;DHT22;11729;50.836;4.330;2023-03-23T04:56:20;14.00;99.90
23120;DHT22;11729;50.836;4.330;2023-03-23T04:58:46;14.00;99.90
23120;DHT22;11729;50.836;4.330;2023-03-23T05:01:12;13.80;99.90
23120;DHT22;11729;50.836;4.330;2023-03-23T05:03:43;13.70;99.90
23120;DHT22;11729;50.836;4.330;2023-03-23T05:06:10;13.80;99.90
23120;DHT22;11729;50.836;4.330;2023-03-23T05:08:36;13.90;99.90
23120;DHT22;11729;50.836;4.330;2023-03-23T05:11:04;13.80;99.90
23120;DHT22;11729;50.836;4.330;2023-03-23T05:13:31;13.90;99.90
23120;DHT22;11729;50.836;4.330;2023-03-23T05:15:57;13.70;99.90
23120;DHT22;11729;50.836;4.330;2023-03-23T05:18:22;13.90;99.90
23120;DHT22;11729;50.836;4.330;2023-03-23T05:20:48;13.80;99.90
23120;DHT22;11729;50.836;4.330;2023-03-23T05:23:14;13.70;99.90
23120;DHT22;11729;50.836;4.330;2023-03-23T05:25:40;13.60;99.90
23120;DHT22;11729;50.836;4.330;2023-03-23T05:28:07;13.80;99.90
23120;DHT22;11729;50.836;4.330;2023-03-23T05:30:34;13.80;99.90
23120;DHT22;11729;50.836;4.330;2023-03-23T05:33:00;13.80;99.90
23120;DHT22;11729;50.836;4.330;2023-03-23T05:35:25;13.80;99.90
23120;DHT22;11729;50.836;4.330;2023-03-23T05:37:52;13.80;99.90
23120;DHT22;11729;50.836;4.330;2023-03-23T05:40:19;13.80;99.90
23120;DHT22;11729;50.836;4.330;2023-03-23T05:42:46;13.80;99.90
23120;DHT22;11729;50.836;4.330;2023-03-23T05:45:12;13.90;99.90
23120;DHT22;11729;50.836;4.330;2023-03-23T05:47:39;14.00;99.90
23120;DHT22;11729;50.836;4.330;2023-03-23T05:50:06;14.00;99.90
23120;DHT22;11729;50.836;4.330;2023-03-23T05:52:34;13.90;99.90
23120;DHT22;11729;50.836;4.330;2023-03-23T05:55:02;13.80;99.90
23120;DHT22;11729;50.836;4.330;2023-03-23T05:57:29;13.90;99.90
23120;DHT22;11729;50.836;4.330;2023-03-23T05:59:54;13.90;99.90
23120;DHT22;11729;50.836;4.330;2023-03-23T06:02:21;13.80;99.90
23120;DHT22;11729;50.836;4.330;2023-03-23T06:04:48;13.90;99.90
23120;DHT22;11729;50.836;4.330;2023-03-23T06:07:14;14.00;99.90
23120;DHT22;11729;50.836;4.330;2023-03-23T06:09:41;13.90;99.90
23120;DHT22;11729;50.836;4.330;2023-03-23T06:12:08;13.90;99.90
23120;DHT22;11729;50.836;4.330;2023-03-23T06:14:35;13.90;99.90
23120;DHT22;11729;50.836;4.330;2023-03-23T06:17:02;13.80;99.90
23120;DHT22;11729;50.836;4.330;2023-03-23T06:19:27;13.90;99.90
23120;DHT22;11729;50.836;4.330;2023-03-23T06:21:56;13.80;99.90
23120;DHT22;11729;50.836;4.330;2023-03-23T06:24:22;13.90;99.90
23120;DHT22;11729;50.836;4.330;2023-03-23T06:26:48;13.90;99.90
23120;DHT22;11729;50.836;4.330;2023-03-23T06:29:15;14.00;99.90
23120;DHT22;11729;50.836;4.330;2023-03-23T06:31:45;14.00;99.90
23120;DHT22;11729;50.836;4.330;2023-03-23T06:34:11;14.10;99.90
23120;DHT22;11729;50.836;4.330;2023-03-23T06:36:37;14.10;99.90
23120;DHT22;11729;50.836;4.330;2023-03-23T06:39:04;14.00;99.90
23120;DHT22;11729;50.836;4.330;2023-03-23T06:41:33;14.10;99.90
23120;DHT22;11729;50.836;4.330;2023-03-23T06:44:00;14.00;99.90
23120;DHT22;11729;50.836;4.330;2023-03-23T06:46:26;14.00;99.90
23120;DHT22;11729;50.836;4.330;2023-03-23T06:48:52;13.80;99.90
23120;DHT22;11729;50.836;4.330;2023-03-23T06:51:18;13.60;99.90
23120;DHT22;11729;50.836;4.330;2023-03-23T06:53:44;13.50;99.90
23120;DHT22;11729;50.836;4.330;2023-03-23T06:56:10;13.30;99.90
23120;DHT22;11729;50.836;4.330;2023-03-23T06:58:37;13.20;99.90
23120;DHT22;11729;50.836;4.330;2023-03-23T07:01:03;13.10;99.90
23120;DHT22;11729;50.836;4.330;2023-03-23T07:03:29;13.00;99.90
23120;DHT22;11729;50.836;4.330;2023-03-23T07:05:56;12.90;99.90
23120;DHT22;11729;50.836;4.330;2023-03-23T07:08:22;12.90;99.90
23120;DHT22;11729;50.836;4.330;2023-03-23T07:10:51;12.90;99.90
23120;DHT22;11729;50.836;4.330;2023-03-23T07:13:18;12.70;99.90
23120;DHT22;11729;50.836;4.330;2023-03-23T07:15:43;12.60;99.90
23120;DHT22;11729;50.836;4.330;2023-03-23T07:18:09;12.40;99.90
23120;DHT22;11729;50.836;4.330;2023-03-23T07:20:35;12.10;99.90
23120;DHT22;11729;50.836;4.330;2023-03-23T07:23:02;11.80;99.90
23120;DHT22;11729;50.836;4.330;2023-03-23T07:25:31;12.10;99.90
23120;DHT22;11729;50.836;4.330;2023-03-23T07:27:58;12.10;99.90
23120;DHT22;11729;50.836;4.330;2023-03-23T07:30:24;11.80;99.90
23120;DHT22;11729;50.836;4.330;2023-03-23T07:32:50;11.60;99.90
23120;DHT22;11729;50.836;4.330;2023-03-23T07:35:16;11.40;99.90
23120;DHT22;11729;50.836;4.330;2023-03-23T07:37:41;11.40;99.90
23120;DHT22;11729;50.836;4.330;2023-03-23T07:40:08;11.40;99.90
23120;DHT22;11729;50.836;4.330;2023-03-23T07:42:35;11.40;99.90
23120;DHT22;11729;50.836;4.330;2023-03-23T07:45:00;11.50;99.90
23120;DHT22;11729;50.836;4.330;2023-03-23T07:47:26;11.50;99.90
23120;DHT22;11729;50.836;4.330;2023-03-23T07:49:52;11.60;99.90
23120;DHT22;11729;50.836;4.330;2023-03-23T07:52:17;11.60;99.90
23120;DHT22;11729;50.836;4.330;2023-03-23T07:54:43;11.70;99.90
23120;DHT22;11729;50.836;4.330;2023-03-23T07:57:08;11.90;99.90
23120;DHT22;11729;50.836;4.330;2023-03-23T07:59:34;11.90;99.90
23120;DHT22;11729;50.836;4.330;2023-03-23T08:02:00;12.10;99.90
23120;DHT22;11729;50.836;4.330;2023-03-23T08:04:26;12.10;99.90
23120;DHT22;11729;50.836;4.330;2023-03-23T08:06:52;12.20;99.90
23120;DHT22;11729;50.836;4.330;2023-03-23T08:09:18;12.20;99.90
23120;DHT22;11729;50.836;4.330;2023-03-23T08:11:43;12.10;99.90
23120;DHT22;11729;50.836;4.330;2023-03-23T08:14:09;12.20;99.90
23120;DHT22;11729;50.836;4.330;2023-03-23T08:16:35;12.20;99.90
23120;DHT22;11729;50.836;4.330;2023-03-23T08:19:01;12.20;99.90
23120;DHT22;11729;50.836;4.330;2023-03-23T08:21:27;12.30;99.90
23120;DHT22;11729;50.836;4.330;2023-03-23T08:23:54;12.20;99.90
23120;DHT22;11729;50.836;4.330;2023-03-23T08:26:20;12.20;99.90
23120;DHT22;11729;50.836;4.330;2023-03-23T08:28:46;12.10;99.90
23120;DHT22;11729;50.836;4.330;2023-03-23T08:31:14;12.10;99.90
23120;DHT22;11729;50.836;4.330;2023-03-23T08:33:40;11.90;99.90
23120;DHT22;11729;50.836;4.330;2023-03-23T08:36:07;11.80;99.90
23120;DHT22;11729;50.836;4.330;2023-03-23T08:38:34;11.90;99.90
23120;DHT22;11729;50.836;4.330;2023-03-23T08:41:05;12.00;99.90
23120;DHT22;11729;50.836;4.330;2023-03-23T08:43:32;11.90;99.90
23120;DHT22;11729;50.836;4.330;2023-03-23T08:45:58;11.90;99.90
23120;DHT22;11729;50.836;4.330;2023-03-23T08:48:24;11.90;99.90
23120;DHT22;11729;50.836;4.330;2023-03-23T08:50:50;11.80;99.90
23120;DHT22;11729;50.836;4.330;2023-03-23T08:53:18;12.00;99.90
23120;DHT22;11729;50.836;4.330;2023-03-23T08:55:43;12.10;99.90
23120;DHT22;11729;50.836;4.330;2023-03-23T08:58:09;12.30;99.90
23120;DHT22;11729;50.836;4.330;2023-03-23T09:00:35;12.30;99.90
23120;DHT22;11729;50.836;4.330;2023-03-23T09:03:01;12.30;99.90
23120;DHT22;11729;50.836;4.330;2023-03-23T09:05:28;12.30;99.90
23120;DHT22;11729;50.836;4.330;2023-03-23T09:07:56;12.30;99.90
23120;DHT22;11729;50.836;4.330;2023-03-23T09:10:25;12.30;99.90
23120;DHT22;11729;50.836;4.330;2023-03-23T09:12:52;12.40;99.90
23120;DHT22;11729;50.836;4.330;2023-03-23T09:15:19;12.40;99.90
23120;DHT22;11729;50.836;4.330;2023-03-23T09:17:46;12.40;99.90
23120;DHT22;11729;50.836;4.330;2023-03-23T09:20:22;12.60;99.90
23120;DHT22;11729;50.836;4.330;2023-03-23T09:22:51;12.70;99.90
23120;DHT22;11729;50.836;4.330;2023-03-23T09:25:19;12.90;99.90
23120;DHT22;11729;50.836;4.330;2023-03-23T09:27:49;13.00;99.90
23120;DHT22;11729;50.836;4.330;2023-03-23T09:30:19;13.00;99.90
23120;DHT22;11729;50.836;4.330;2023-03-23T09:32:45;12.80;99.90
23120;DHT22;11729;50.836;4.330;2023-03-23T09:35:13;12.80;99.90
23120;DHT22;11729;50.836;4.330;2023-03-23T09:37:41;12.90;99.90
23120;DHT22;11729;50.836;4.330;2023-03-23T09:40:15;13.10;99.90
23120;DHT22;11729;50.836;4.330;2023-03-23T09:51:56;14.70;99.90
23120;DHT22;11729;50.836;4.330;2023-03-23T09:53:54;14.60;99.90
23120;DHT22;11729;50.836;4.330;2023-03-23T09:56:21;15.20;99.90
23120;DHT22;11729;50.836;4.330;2023-03-23T09:59:14;15.50;99.90
23120;DHT22;11729;50.836;4.330;2023-03-23T10:01:54;15.90;99.90
23120;DHT22;11729;50.836;4.330;2023-03-23T10:04:38;15.80;99.90
23120;DHT22;11729;50.836;4.330;2023-03-23T10:07:33;15.90;99.90
23120;DHT22;11729;50.836;4.330;2023-03-23T10:10:00;16.00;99.90
23120;DHT22;11729;50.836;4.330;2023-03-23T10:15:21;15.50;99.90
23120;DHT22;11729;50.836;4.330;2023-03-23T10:18:10;15.50;99.90
23120;DHT22;11729;50.836;4.330;2023-03-23T10:20:57;15.50;99.90
23120;DHT22;11729;50.836;4.330;2023-03-23T10:23:59;15.60;99.90
23120;DHT22;11729;50.836;4.330;2023-03-23T10:31:37;15.40;99.90
23120;DHT22;11729;50.836;4.330;2023-03-23T10:34:13;15.50;99.90
23120;DHT22;11729;50.836;4.330;2023-03-23T10:36:53;15.60;99.90
23120;DHT22;11729;50.836;4.330;2023-03-23T10:39:22;15.60;99.90
23120;DHT22;11729;50.836;4.330;2023-03-23T10:41:49;15.50;99.90
23120;DHT22;11729;50.836;4.330;2023-03-23T10:44:24;15.30;99.90
23120;DHT22;11729;50.836;4.330;2023-03-23T10:47:00;15.20;99.90
23120;DHT22;11729;50.836;4.330;2023-03-23T10:49:30;15.20;99.90
23120;DHT22;11729;50.836;4.330;2023-03-23T10:57:40;15.70;99.90
23120;DHT22;11729;50.836;4.330;2023-03-23T11:00:27;15.80;99.90
23120;DHT22;11729;50.836;4.330;2023-03-23T11:05:53;16.10;99.90
23120;DHT22;11729;50.836;4.330;2023-03-23T11:08:20;16.40;99.90
23120;DHT22;11729;50.836;4.330;2023-03-23T11:10:58;16.50;99.90
23120;DHT22;11729;50.836;4.330;2023-03-23T11:13:30;16.90;99.90
23120;DHT22;11729;50.836;4.330;2023-03-23T11:15:57;17.10;99.90
23120;DHT22;11729;50.836;4.330;2023-03-23T11:18:43;16.80;99.90
23120;DHT22;11729;50.836;4.330;2023-03-23T11:21:11;16.60;99.90
23120;DHT22;11729;50.836;4.330;2023-03-23T11:23:40;16.50;99.90
23120;DHT22;11729;50.836;4.330;2023-03-23T11:31:09;17.50;99.90
23120;DHT22;11729;50.836;4.330;2023-03-23T11:34:00;18.20;99.90
23120;DHT22;11729;50.836;4.330;2023-03-23T11:36:53;18.70;99.90
23120;DHT22;11729;50.836;4.330;2023-03-23T11:39:31;18.90;99.90
23120;DHT22;11729;50.836;4.330;2023-03-23T11:42:00;19.00;99.90
23120;DHT22;11729;50.836;4.330;2023-03-23T11:44:43;19.30;99.90
23120;DHT22;11729;50.836;4.330;2023-03-23T11:47:23;19.20;99.90
23120;DHT22;11729;50.836;4.330;2023-03-23T11:53:00;18.60;99.90
23120;DHT22;11729;50.836;4.330;2023-03-23T11:55:55;18.20;99.90
23120;DHT22;11729;50.836;4.330;2023-03-23T11:58:20;18.20;99.90
23120;DHT22;11729;50.836;4.330;2023-03-23T12:00:58;18.20;99.90
23120;DHT22;11729;50.836;4.330;2023-03-23T12:17:20;19.90;99.90
23120;DHT22;11729;50.836;4.330;2023-03-23T12:20:32;20.30;99.90
23120;DHT22;11729;50.836;4.330;2023-03-23T12:23:06;20.10;99.90
23120;DHT22;11729;50.836;4.330;2023-03-23T12:25:45;19.60;99.90
23120;DHT22;11729;50.836;4.330;2023-03-23T12:45:11;21.10;99.90
23120;DHT22;11729;50.836;4.330;2023-03-23T12:48:00;20.70;99.90
23120;DHT22;11729;50.836;4.330;2023-03-23T12:50:36;20.90;99.90
23120;DHT22;11729;50.836;4.330;2023-03-23T12:53:33;20.60;99.90
23120;DHT22;11729;50.836;4.330;2023-03-23T12:56:29;19.80;99.90
23120;DHT22;11729;50.836;4.330;2023-03-23T13:01:38;18.50;99.90
23120;DHT22;11729;50.836;4.330;2023-03-23T13:04:10;18.30;99.90
23120;DHT22;11729;50.836;4.330;2023-03-23T13:06:41;18.40;99.90
23120;DHT22;11729;50.836;4.330;2023-03-23T13:09:37;18.50;99.90
23120;DHT22;11729;50.836;4.330;2023-03-23T13:12:05;18.40;99.90
23120;DHT22;11729;50.836;4.330;2023-03-23T13:18:01;18.50;99.90
23120;DHT22;11729;50.836;4.330;2023-03-23T13:23:21;18.80;99.90
23120;DHT22;11729;50.836;4.330;2023-03-23T13:28:23;19.30;99.90
23120;DHT22;11729;50.836;4.330;2023-03-23T13:33:32;19.40;99.90
23120;DHT22;11729;50.836;4.330;2023-03-23T13:36:04;19.80;99.90
23120;DHT22;11729;50.836;4.330;2023-03-23T13:38:33;19.70;99.90
23120;DHT22;11729;50.836;4.330;2023-03-23T13:41:06;19.30;99.90
23120;DHT22;11729;50.836;4.330;2023-03-23T13:43:34;18.80;99.90
23120;DHT22;11729;50.836;4.330;2023-03-23T13:48:49;18.50;99.90
23120;DHT22;11729;50.836;4.330;2023-03-23T13:59:46;17.30;99.90
23120;DHT22;11729;50.836;4.330;2023-03-23T14:04:57;16.40;99.90
23120;DHT22;11729;50.836;4.330;2023-03-23T14:07:23;16.00;99.90
23120;DHT22;11729;50.836;4.330;2023-03-23T14:09:50;15.80;99.90
23120;DHT22;11729;50.836;4.330;2023-03-23T14:12:19;15.80;99.90
23120;DHT22;11729;50.836;4.330;2023-03-23T14:14:48;15.70;99.90
23120;DHT22;11729;50.836;4.330;2023-03-23T14:17:31;15.70;99.90
23120;DHT22;11729;50.836;4.330;2023-03-23T14:19:58;15.80;99.90
23120;DHT22;11729;50.836;4.330;2023-03-23T14:22:27;15.90;99.90
23120;DHT22;11729;50.836;4.330;2023-03-23T14:24:58;16.20;99.90
23120;DHT22;11729;50.836;4.330;2023-03-23T14:27:26;16.30;99.90
23120;DHT22;11729;50.836;4.330;2023-03-23T14:30:06;16.40;99.90
23120;DHT22;11729;50.836;4.330;2023-03-23T14:32:33;16.50;99.90
23120;DHT22;11729;50.836;4.330;2023-03-23T14:35:04;16.70;99.90
23120;DHT22;11729;50.836;4.330;2023-03-23T14:37:32;16.80;99.90
23120;DHT22;11729;50.836;4.330;2023-03-23T14:39:58;16.90;99.90
23120;DHT22;11729;50.836;4.330;2023-03-23T14:42:33;16.60;99.90
23120;DHT22;11729;50.836;4.330;2023-03-23T14:45:01;16.50;99.90
23120;DHT22;11729;50.836;4.330;2023-03-23T14:47:35;16.20;99.90
23120;DHT22;11729;50.836;4.330;2023-03-23T14:50:05;16.20;99.90
23120;DHT22;11729;50.836;4.330;2023-03-23T14:52:36;16.20;99.90
23120;DHT22;11729;50.836;4.330;2023-03-23T14:55:21;16.20;99.90
23120;DHT22;11729;50.836;4.330;2023-03-23T14:57:48;16.30;99.90
23120;DHT22;11729;50.836;4.330;2023-03-23T15:00:29;16.60;99.90
23120;DHT22;11729;50.836;4.330;2023-03-23T15:02:57;16.90;99.90
23120;DHT22;11729;50.836;4.330;2023-03-23T15:05:33;17.10;99.90
23120;DHT22;11729;50.836;4.330;2023-03-23T15:08:14;17.20;99.90
23120;DHT22;11729;50.836;4.330;2023-03-23T15:10:40;17.30;99.90
23120;DHT22;11729;50.836;4.330;2023-03-23T15:13:11;17.40;99.90
23120;DHT22;11729;50.836;4.330;2023-03-23T15:15:37;17.40;99.90
23120;DHT22;11729;50.836;4.330;2023-03-23T15:18:03;17.40;99.90
23120;DHT22;11729;50.836;4.330;2023-03-23T15:20:49;17.40;99.90
23120;DHT22;11729;50.836;4.330;2023-03-23T15:23:17;17.30;99.90
23120;DHT22;11729;50.836;4.330;2023-03-23T15:25:51;17.30;99.90
23120;DHT22;11729;50.836;4.330;2023-03-23T15:28:31;17.20;99.90
23120;DHT22;11729;50.836;4.330;2023-03-23T15:31:02;17.30;99.90
23120;DHT22;11729;50.836;4.330;2023-03-23T15:33:38;17.20;99.90
23120;DHT22;11729;50.836;4.330;2023-03-23T15:36:16;17.40;99.90
23120;DHT22;11729;50.836;4.330;2023-03-23T15:38:46;17.40;99.90
23120;DHT22;11729;50.836;4.330;2023-03-23T15:41:27;17.50;99.90
23120;DHT22;11729;50.836;4.330;2023-03-23T15:43:55;17.50;99.90
23120;DHT22;11729;50.836;4.330;2023-03-23T15:46:26;17.30;99.90
23120;DHT22;11729;50.836;4.330;2023-03-23T15:51:29;16.80;99.90
23120;DHT22;11729;50.836;4.330;2023-03-23T15:53:56;16.60;99.90
23120;DHT22;11729;50.836;4.330;2023-03-23T15:56:22;16.40;99.90
23120;DHT22;11729;50.836;4.330;2023-03-23T15:58:48;16.40;99.90
23120;DHT22;11729;50.836;4.330;2023-03-23T16:01:24;16.60;99.90
23120;DHT22;11729;50.836;4.330;2023-03-23T16:03:53;16.80;99.90
23120;DHT22;11729;50.836;4.330;2023-03-23T16:06:22;16.90;99.90
23120;DHT22;11729;50.836;4.330;2023-03-23T16:08:49;17.10;99.90
23120;DHT22;11729;50.836;4.330;2023-03-23T16:11:16;17.20;99.90
23120;DHT22;11729;50.836;4.330;2023-03-23T16:13:43;17.00;99.90
23120;DHT22;11729;50.836;4.330;2023-03-23T16:16:15;16.90;99.90
23120;DHT22;11729;50.836;4.330;2023-03-23T16:18:42;17.00;99.90
23120;DHT22;11729;50.836;4.330;2023-03-23T16:21:09;17.10;99.90
23120;DHT22;11729;50.836;4.330;2023-03-23T16:23:35;17.20;99.90
23120;DHT22;11729;50.836;4.330;2023-03-23T16:26:00;17.20;99.90
23120;DHT22;11729;50.836;4.330;2023-03-23T16:28:26;17.20;99.90
23120;DHT22;11729;50.836;4.330;2023-03-23T16:30:52;17.20;99.90
23120;DHT22;11729;50.836;4.330;2023-03-23T16:33:17;17.10;99.90
23120;DHT22;11729;50.836;4.330;2023-03-23T16:35:43;17.00;99.90
23120;DHT22;11729;50.836;4.330;2023-03-23T16:38:16;16.90;99.90
23120;DHT22;11729;50.836;4.330;2023-03-23T16:40:43;16.80;99.90
23120;DHT22;11729;50.836;4.330;2023-03-23T16:43:09;16.70;99.90
23120;DHT22;11729;50.836;4.330;2023-03-23T16:45:38;16.80;99.90
23120;DHT22;11729;50.836;4.330;2023-03-23T16:48:04;16.80;99.90
23120;DHT22;11729;50.836;4.330;2023-03-23T16:50:31;16.70;99.90
23120;DHT22;11729;50.836;4.330;2023-03-23T16:52:57;16.70;99.90
23120;DHT22;11729;50.836;4.330;2023-03-23T16:55:23;16.60;99.90
23120;DHT22;11729;50.836;4.330;2023-03-23T16:57:52;16.50;99.90
23120;DHT22;11729;50.836;4.330;2023-03-23T17:00:18;16.60;99.90
23120;DHT22;11729;50.836;4.330;2023-03-23T17:02:46;16.60;99.90
23120;DHT22;11729;50.836;4.330;2023-03-23T17:05:12;16.40;99.90
23120;DHT22;11729;50.836;4.330;2023-03-23T17:07:39;16.50;99.90
23120;DHT22;11729;50.836;4.330;2023-03-23T17:10:07;16.40;99.90
23120;DHT22;11729;50.836;4.330;2023-03-23T17:12:33;16.40;99.90
23120;DHT22;11729;50.836;4.330;2023-03-23T17:14:59;16.50;99.90
23120;DHT22;11729;50.836;4.330;2023-03-23T17:17:25;16.50;99.90
23120;DHT22;11729;50.836;4.330;2023-03-23T17:19:51;16.50;99.90
23120;DHT22;11729;50.836;4.330;2023-03-23T17:22:18;16.60;99.90
23120;DHT22;11729;50.836;4.330;2023-03-23T17:24:44;16.50;99.90
23120;DHT22;11729;50.836;4.330;2023-03-23T17:27:12;16.50;99.90
23120;DHT22;11729;50.836;4.330;2023-03-23T17:29:38;16.50;99.90
23120;DHT22;11729;50.836;4.330;2023-03-23T17:32:04;16.40;99.90
23120;DHT22;11729;50.836;4.330;2023-03-23T17:34:30;16.40;99.90
23120;DHT22;11729;50.836;4.330;2023-03-23T17:36:56;16.40;99.90
23120;DHT22;11729;50.836;4.330;2023-03-23T17:39:21;16.20;99.90
23120;DHT22;11729;50.836;4.330;2023-03-23T17:41:47;16.20;99.90
23120;DHT22;11729;50.836;4.330;2023-03-23T17:44:13;16.20;99.90
23120;DHT22;11729;50.836;4.330;2023-03-23T17:46:38;16.20;99.90